Time;durP1;ratioP1;P1;durP2;ratioP2;P2;SDS_P1;SDS_P2;PMS_P1;PMS_P2;Temp;Humidity;BMP_temperature;BMP_pressure;BME280_temperature;BME280_humidity;BME280_pressure;Samples;Min_cycle;Max_cycle;Signal;HPM_P1;HPM_P2
2022/08/18 00:00:48;;;;;;;0.00;0.00;;;18.80;90.50;;;;;;5057307;28;20056;-68
2022/08/18 00:03:14;;;;;;;0.00;0.00;;;18.80;90.60;;;;;;5056246;28;20673;-68
2022/08/18 00:05:39;;;;;;;0.00;0.00;;;18.80;90.60;;;;;;5061244;28;20033;-67
2022/08/18 00:08:06;;;;;;;0.00;0.00;;;18.80;90.60;;;;;;5060164;28;20048;-68
2022/08/18 00:10:32;;;;;;;0.00;0.00;;;18.70;90.50;;;;;;5055185;28;20091;-68
2022/08/18 00:12:58;;;;;;;0.00;0.00;;;18.80;90.40;;;;;;5062189;28;20049;-68
2022/08/18 00:15:23;;;;;;;0.00;0.00;;;18.80;90.40;;;;;;5057727;28;20041;-68
2022/08/18 00:17:49;;;;;;;0.00;0.00;;;18.80;90.40;;;;;;5065070;28;20058;-67
2022/08/18 00:20:19;;;;;;;0.00;0.00;;;18.80;90.30;;;;;;5059554;28;20152;-68
2022/08/18 00:22:44;;;;;;;0.00;0.00;;;18.80;90.30;;;;;;5060210;28;20789;-67
2022/08/18 00:25:12;;;;;;;0.00;0.00;;;18.90;90.20;;;;;;5059674;28;20039;-67
2022/08/18 00:27:40;;;;;;;0.00;0.00;;;18.80;90.20;;;;;;5060222;28;20036;-67
2022/08/18 00:30:08;;;;;;;0.00;0.00;;;18.80;90.10;;;;;;5062412;28;20044;-67
2022/08/18 00:32:40;;;;;;;0.00;0.00;;;18.80;90.20;;;;;;5060090;28;20131;-68
2022/08/18 00:35:19;;;;;;;0.00;0.00;;;18.80;90.20;;;;;;5054664;28;20114;-68
2022/08/18 00:37:46;;;;;;;0.00;0.00;;;18.90;90.20;;;;;;5059069;28;20041;-69
2022/08/18 00:40:16;;;;;;;0.00;0.00;;;18.80;90.20;;;;;;5058866;28;20048;-67
2022/08/18 00:42:49;;;;;;;0.00;0.00;;;18.90;90.20;;;;;;5059790;28;20055;-68
2022/08/18 00:45:29;;;;;;;0.00;0.00;;;18.80;90.20;;;;;;5061473;28;20032;-67
2022/08/18 00:47:54;;;;;;;0.10;0.10;;;18.80;90.30;;;;;;5063711;28;20029;-68
2022/08/18 00:50:27;;;;;;;0.00;0.00;;;18.80;90.20;;;;;;5054531;28;20041;-68
2022/08/18 00:52:57;;;;;;;0.00;0.00;;;18.80;90.30;;;;;;5058699;28;20033;-68
2022/08/18 00:55:23;;;;;;;0.00;0.00;;;18.70;90.40;;;;;;5064950;28;20048;-68
2022/08/18 00:57:53;;;;;;;0.00;0.00;;;18.70;90.50;;;;;;5057728;28;20051;-67
2022/08/18 01:00:20;;;;;;;0.00;0.00;;;18.60;90.50;;;;;;5059854;28;20552;-67
2022/08/18 01:02:50;;;;;;;0.00;0.00;;;18.60;90.50;;;;;;5057661;28;20048;-67
2022/08/18 01:05:39;;;;;;;0.00;0.00;;;18.60;90.50;;;;;;5063702;28;20035;-67
2022/08/18 01:08:10;;;;;;;0.00;0.00;;;18.60;90.60;;;;;;5059771;28;20064;-67
2022/08/18 01:10:35;;;;;;;0.00;0.00;;;18.60;90.70;;;;;;5058946;28;20060;-68
2022/08/18 01:13:01;;;;;;;0.00;0.00;;;18.60;90.70;;;;;;5055906;28;20037;-68
2022/08/18 01:15:27;;;;;;;0.00;0.00;;;18.60;90.60;;;;;;5056730;28;20071;-68
2022/08/18 01:23:30;;;;;;;0.00;0.00;;;18.60;90.60;;;;;;5058873;28;20529;-67
2022/08/18 01:25:59;;;;;;;0.00;0.00;;;18.60;90.70;;;;;;5058898;28;20119;-67
2022/08/18 01:28:30;;;;;;;0.00;0.00;;;18.70;90.80;;;;;;5055267;28;20520;-68
2022/08/18 01:30:57;;;;;;;0.08;0.08;;;18.70;90.70;;;;;;5059384;28;20036;-67
2022/08/18 01:33:32;;;;;;;0.00;0.00;;;18.80;90.70;;;;;;5057613;28;20846;-68
2022/08/18 01:36:09;;;;;;;0.00;0.00;;;18.70;90.60;;;;;;5057468;28;20037;-68
2022/08/18 01:38:34;;;;;;;0.00;0.00;;;18.80;90.70;;;;;;5061541;28;20041;-67
2022/08/18 01:41:00;;;;;;;0.00;0.00;;;18.80;90.70;;;;;;5052010;28;20044;-67
2022/08/18 01:43:25;;;;;;;0.00;0.00;;;18.80;90.70;;;;;;5059187;28;20051;-67
2022/08/18 01:45:52;;;;;;;0.00;0.00;;;18.80;90.80;;;;;;5063595;28;20071;-67
2022/08/18 01:48:17;;;;;;;0.00;0.00;;;18.80;90.80;;;;;;5057953;28;20706;-67
2022/08/18 01:50:44;;;;;;;0.00;0.00;;;18.80;90.80;;;;;;5060660;28;20048;-68
2022/08/18 01:53:10;;;;;;;0.00;0.00;;;18.80;90.90;;;;;;5059988;28;20082;-67
2022/08/18 01:55:43;;;;;;;0.00;0.00;;;18.90;90.80;;;;;;5057103;28;20052;-67
2022/08/18 01:58:08;;;;;;;0.00;0.00;;;18.80;90.90;;;;;;5052656;28;20537;-68
2022/08/18 02:00:35;;;;;;;0.10;0.10;;;18.80;90.90;;;;;;5058978;28;20037;-67
2022/08/18 02:03:05;;;;;;;0.00;0.00;;;18.80;91.00;;;;;;5059002;28;20047;-67
2022/08/18 02:05:42;;;;;;;0.00;0.00;;;18.70;91.00;;;;;;5054860;28;20044;-67
2022/08/18 02:08:11;;;;;;;0.00;0.00;;;18.70;90.90;;;;;;5052686;28;20048;-67
2022/08/18 02:10:37;;;;;;;0.00;0.00;;;18.70;90.90;;;;;;5058940;28;20048;-65
2022/08/18 02:13:03;;;;;;;0.00;0.00;;;18.60;90.90;;;;;;5058984;28;20040;-65
2022/08/18 02:15:29;;;;;;;0.00;0.00;;;18.60;90.90;;;;;;5058343;28;20048;-68
2022/08/18 02:17:55;;;;;;;0.10;0.10;;;18.60;90.90;;;;;;5059166;28;20052;-67
2022/08/18 02:20:21;;;;;;;0.80;0.73;;;18.60;90.90;;;;;;5052964;28;20033;-67
2022/08/18 02:22:47;;;;;;;0.00;0.00;;;18.60;90.90;;;;;;5055407;28;20037;-67
2022/08/18 02:25:15;;;;;;;0.00;0.00;;;18.50;91.00;;;;;;5049872;28;20164;-68
2022/08/18 02:27:42;;;;;;;0.00;0.00;;;18.60;91.00;;;;;;5057017;28;20032;-67
2022/08/18 02:30:11;;;;;;;0.00;0.00;;;18.60;91.10;;;;;;5059435;28;20409;-67
2022/08/18 02:32:37;;;;;;;0.00;0.00;;;18.60;91.00;;;;;;5054166;28;20098;-67
2022/08/18 02:35:05;;;;;;;0.00;0.00;;;18.60;91.00;;;;;;5062585;28;20064;-67
2022/08/18 02:37:30;;;;;;;0.00;0.00;;;18.60;91.00;;;;;;5058589;28;20507;-68
2022/08/18 02:39:56;;;;;;;0.00;0.00;;;18.60;91.00;;;;;;5059359;28;20075;-67
2022/08/18 02:42:22;;;;;;;0.00;0.00;;;18.60;91.00;;;;;;5057846;28;20087;-67
2022/08/18 02:44:47;;;;;;;0.00;0.00;;;18.60;91.10;;;;;;5062681;28;20037;-67
2022/08/18 02:47:13;;;;;;;0.10;0.10;;;18.60;90.90;;;;;;5057909;28;20045;-68
2022/08/18 02:49:39;;;;;;;0.00;0.00;;;18.60;91.20;;;;;;5060440;28;20041;-68
2022/08/18 02:52:05;;;;;;;0.00;0.00;;;18.50;91.20;;;;;;5054556;28;20040;-67
2022/08/18 02:54:30;;;;;;;0.00;0.00;;;18.60;91.20;;;;;;5053824;28;20122;-67
2022/08/18 02:56:56;;;;;;;0.00;0.00;;;18.60;91.20;;;;;;5059594;28;20457;-68
2022/08/18 02:59:26;;;;;;;0.00;0.00;;;18.60;91.20;;;;;;5057606;28;20044;-68
2022/08/18 03:01:54;;;;;;;0.00;0.00;;;18.60;91.20;;;;;;5058394;28;20047;-68
2022/08/18 03:04:26;;;;;;;0.00;0.00;;;18.60;91.20;;;;;;5057042;28;20410;-68
2022/08/18 03:06:56;;;;;;;0.00;0.00;;;18.60;91.20;;;;;;5050402;28;20040;-67
2022/08/18 03:09:21;;;;;;;0.00;0.00;;;18.60;91.10;;;;;;5053309;28;20512;-68
2022/08/18 03:11:47;;;;;;;0.00;0.00;;;18.60;91.10;;;;;;5061006;28;20053;-68
2022/08/18 03:14:14;;;;;;;0.00;0.00;;;18.60;91.10;;;;;;5059519;28;20822;-68
2022/08/18 03:16:43;;;;;;;0.00;0.00;;;18.60;91.20;;;;;;5054601;28;20047;-67
2022/08/18 03:19:08;;;;;;;0.00;0.00;;;18.60;91.20;;;;;;5053555;28;20099;-67
2022/08/18 03:21:36;;;;;;;0.00;0.00;;;18.60;91.20;;;;;;5054123;28;20076;-68
2022/08/18 03:24:03;;;;;;;0.00;0.00;;;18.60;91.10;;;;;;5059787;28;20047;-68
2022/08/18 03:26:31;;;;;;;0.00;0.00;;;18.60;91.00;;;;;;5058598;28;20043;-67
2022/08/18 03:28:58;;;;;;;0.15;0.15;;;18.50;91.20;;;;;;5056547;28;20045;-68
2022/08/18 03:31:26;;;;;;;0.08;0.08;;;18.50;91.30;;;;;;5056429;28;20090;-67
2022/08/18 03:33:55;;;;;;;0.00;0.00;;;18.50;91.40;;;;;;5053374;28;20033;-68
2022/08/18 03:36:24;;;;;;;0.17;0.17;;;18.50;91.50;;;;;;5061637;28;20485;-68
2022/08/18 03:38:52;;;;;;;0.10;0.10;;;18.40;91.70;;;;;;5054565;28;20379;-68
2022/08/18 03:41:24;;;;;;;0.10;0.10;;;18.40;91.70;;;;;;5041237;28;20048;-68
2022/08/18 03:43:50;;;;;;;0.00;0.00;;;18.50;91.80;;;;;;5052975;28;20037;-67
2022/08/18 03:46:18;;;;;;;0.00;0.00;;;18.50;91.70;;;;;;5055359;28;20052;-67
2022/08/18 03:48:46;;;;;;;0.00;0.00;;;18.50;91.70;;;;;;5059243;28;20041;-67
2022/08/18 03:51:30;;;;;;;0.00;0.00;;;18.50;91.70;;;;;;5055309;28;20056;-68
2022/08/18 03:53:59;;;;;;;0.00;0.00;;;18.50;91.70;;;;;;5050934;28;20063;-68
2022/08/18 03:56:27;;;;;;;0.00;0.00;;;18.50;91.70;;;;;;5035751;28;20143;-68
2022/08/18 03:59:00;;;;;;;0.10;0.10;;;18.50;91.70;;;;;;5059181;28;20036;-65
2022/08/18 04:01:31;;;;;;;0.43;0.20;;;18.50;91.70;;;;;;5054436;28;20037;-66
2022/08/18 04:04:01;;;;;;;0.00;0.00;;;18.50;91.80;;;;;;5063747;28;20112;-65
2022/08/18 04:06:37;;;;;;;0.00;0.00;;;18.50;91.80;;;;;;5055878;28;21257;-66
2022/08/18 04:09:05;;;;;;;0.00;0.00;;;18.60;91.70;;;;;;5050745;28;20044;-66
2022/08/18 04:11:32;;;;;;;0.00;0.00;;;18.60;91.70;;;;;;5058935;28;20052;-66
2022/08/18 04:13:58;;;;;;;0.00;0.00;;;18.60;91.60;;;;;;5058470;28;20049;-65
2022/08/18 04:16:25;;;;;;;0.00;0.00;;;18.70;91.70;;;;;;5061956;28;20048;-65
2022/08/18 04:18:51;;;;;;;0.00;0.00;;;18.70;91.60;;;;;;5056560;28;20045;-66
2022/08/18 04:21:17;;;;;;;0.10;0.10;;;18.70;91.50;;;;;;5057530;28;20394;-66
2022/08/18 04:23:43;;;;;;;0.00;0.00;;;18.70;91.60;;;;;;5056116;28;20041;-66
2022/08/18 04:26:10;;;;;;;0.00;0.00;;;18.70;91.50;;;;;;5062725;28;20898;-68
2022/08/18 04:28:36;;;;;;;0.00;0.00;;;18.70;91.40;;;;;;5055019;28;20040;-66
2022/08/18 04:31:07;;;;;;;0.00;0.00;;;18.80;91.30;;;;;;5064324;28;20401;-66
2022/08/18 04:33:32;;;;;;;0.00;0.00;;;18.80;91.20;;;;;;5061785;28;20048;-66
2022/08/18 04:35:58;;;;;;;0.00;0.00;;;18.80;91.30;;;;;;5058819;28;20051;-65
2022/08/18 04:38:24;;;;;;;0.00;0.00;;;18.80;91.30;;;;;;5060968;28;20068;-66
2022/08/18 04:40:50;;;;;;;0.00;0.00;;;18.80;91.30;;;;;;5058111;28;20047;-66
2022/08/18 04:43:16;;;;;;;0.00;0.00;;;18.80;91.40;;;;;;5054014;28;20056;-66
2022/08/18 04:45:43;;;;;;;0.00;0.00;;;18.80;91.40;;;;;;5063549;28;20048;-65
2022/08/18 04:48:09;;;;;;;0.00;0.00;;;18.80;91.40;;;;;;5065930;28;20056;-66
2022/08/18 04:50:36;;;;;;;0.00;0.00;;;18.90;91.40;;;;;;5060949;28;20037;-66
2022/08/18 04:55:51;;;;;;;0.00;0.00;;;18.80;91.40;;;;;;5053761;28;20422;-68
2022/08/18 04:58:18;;;;;;;0.00;0.00;;;18.80;91.40;;;;;;5060426;28;20052;-69
2022/08/18 05:00:45;;;;;;;0.00;0.00;;;18.80;91.50;;;;;;5057765;28;20123;-68
2022/08/18 05:03:11;;;;;;;0.00;0.00;;;18.80;91.60;;;;;;5040920;28;20045;-68
2022/08/18 05:05:37;;;;;;;0.00;0.00;;;18.80;91.50;;;;;;5058342;28;20406;-66
2022/08/18 05:08:03;;;;;;;0.60;0.30;;;18.80;91.70;;;;;;5059287;28;20033;-66
2022/08/18 05:10:28;;;;;;;0.38;0.35;;;18.80;91.70;;;;;;5059261;28;20109;-65
2022/08/18 05:12:54;;;;;;;0.00;0.00;;;18.70;91.80;;;;;;5057685;28;20048;-68
2022/08/18 05:15:20;;;;;;;0.28;0.28;;;18.80;92.00;;;;;;5057009;28;20441;-65
2022/08/18 05:17:45;;;;;;;0.10;0.10;;;18.80;91.90;;;;;;5056929;28;20396;-65
2022/08/18 05:20:11;;;;;;;0.00;0.00;;;18.80;92.00;;;;;;5056977;28;20037;-65
2022/08/18 05:22:39;;;;;;;0.00;0.00;;;18.70;92.00;;;;;;5066014;28;20036;-65
2022/08/18 05:25:07;;;;;;;0.00;0.00;;;18.80;92.00;;;;;;5058589;28;20896;-65
2022/08/18 05:27:35;;;;;;;0.00;0.00;;;18.80;91.90;;;;;;5057362;28;20478;-65
2022/08/18 05:30:02;;;;;;;0.00;0.00;;;18.80;92.10;;;;;;5054625;28;20045;-66
2022/08/18 05:32:30;;;;;;;0.00;0.00;;;18.80;92.10;;;;;;5052363;28;20057;-64
2022/08/18 05:34:56;;;;;;;0.00;0.00;;;18.80;92.10;;;;;;5053299;28;20615;-65
2022/08/18 05:37:33;;;;;;;0.00;0.00;;;18.80;92.10;;;;;;5062052;28;20132;-65
2022/08/18 05:40:05;;;;;;;0.00;0.00;;;18.90;92.20;;;;;;5062476;28;20048;-65
2022/08/18 05:42:36;;;;;;;0.00;0.00;;;18.90;92.10;;;;;;5060557;28;20056;-65
2022/08/18 05:45:07;;;;;;;0.20;0.20;;;18.90;92.10;;;;;;5054229;28;20045;-65
2022/08/18 05:47:32;;;;;;;0.10;0.10;;;18.90;92.00;;;;;;5058926;28;20053;-66
2022/08/18 05:50:10;;;;;;;0.00;0.00;;;18.90;92.00;;;;;;5057470;28;20048;-66
2022/08/18 05:52:57;;;;;;;0.00;0.00;;;18.90;92.00;;;;;;5065147;28;20060;-65
2022/08/18 05:58:30;;;;;;;0.00;0.00;;;18.90;92.10;;;;;;5055126;28;20422;-65
2022/08/18 06:01:00;;;;;;;0.00;0.00;;;18.90;92.10;;;;;;5057408;28;20133;-66
2022/08/18 06:03:51;;;;;;;0.00;0.00;;;19.00;92.00;;;;;;5065604;28;20451;-68
2022/08/18 06:06:25;;;;;;;0.00;0.00;;;19.00;92.00;;;;;;5057417;28;20041;-68
2022/08/18 06:09:09;;;;;;;0.00;0.00;;;19.10;91.90;;;;;;5054042;28;20471;-68
2022/08/18 06:11:35;;;;;;;0.00;0.00;;;19.10;91.80;;;;;;5044426;28;20585;-65
2022/08/18 06:14:00;;;;;;;7.20;0.85;;;19.10;91.80;;;;;;5052326;28;20041;-66
2022/08/18 06:16:36;;;;;;;0.00;0.00;;;19.20;91.70;;;;;;5038341;28;20069;-67
2022/08/18 06:19:30;;;;;;;0.00;0.00;;;19.30;91.80;;;;;;5057102;28;20124;-68
2022/08/18 06:22:12;;;;;;;0.00;0.00;;;19.40;91.70;;;;;;5047252;28;20932;-68
2022/08/18 06:24:43;;;;;;;;;;;19.40;91.60;;;;;;5054919;28;20047;-68
2022/08/18 06:27:32;;;;;;;0.00;0.00;;;19.50;91.40;;;;;;5044786;28;19928;-68
2022/08/18 06:30:22;;;;;;;0.00;0.00;;;19.50;91.20;;;;;;5060648;28;20052;-67
2022/08/18 06:33:01;;;;;;;0.00;0.00;;;19.50;91.20;;;;;;5068283;28;20057;-68
2022/08/18 06:35:33;;;;;;;0.10;0.10;;;19.50;91.10;;;;;;5049846;28;20071;-67
2022/08/18 06:41:36;;;;;;;0.05;0.05;;;19.60;90.80;;;;;;5056035;28;20506;-68
2022/08/18 06:44:09;;;;;;;0.00;0.00;;;19.60;90.40;;;;;;5054280;28;20048;-67
2022/08/18 06:46:59;;;;;;;5.25;0.57;;;19.60;90.40;;;;;;5035515;28;20068;-67
2022/08/18 06:49:33;;;;;;;0.00;0.00;;;19.60;90.40;;;;;;5061026;28;20109;-66
2022/08/18 06:52:16;;;;;;;0.00;0.00;;;19.60;90.30;;;;;;5067687;28;20060;-70
2022/08/18 06:54:42;;;;;;;0.00;0.00;;;19.70;90.10;;;;;;5052302;28;20044;-70
2022/08/18 06:57:30;;;;;;;0.00;0.00;;;19.70;89.90;;;;;;5062464;28;20045;-67
2022/08/18 07:00:07;;;;;;;0.08;0.08;;;19.70;89.70;;;;;;5061037;28;20058;-67
2022/08/18 07:02:53;;;;;;;0.00;0.00;;;19.60;89.70;;;;;;5063750;28;20113;-66
2022/08/18 07:05:22;;;;;;;0.00;0.00;;;19.70;89.60;;;;;;5054537;28;20115;-66
2022/08/18 07:08:04;;;;;;;0.00;0.00;;;19.70;89.50;;;;;;5060857;28;20045;-66
2022/08/18 07:10:37;;;;;;;0.00;0.00;;;19.70;89.60;;;;;;5055899;28;20076;-66
2022/08/18 07:13:26;;;;;;;0.00;0.00;;;19.80;89.50;;;;;;5049498;28;20048;-67
2022/08/18 07:15:55;;;;;;;0.00;0.00;;;19.70;89.20;;;;;;5054192;28;20044;-66
2022/08/18 07:18:24;;;;;;;0.00;0.00;;;19.70;88.90;;;;;;5058728;28;20490;-68
2022/08/18 07:20:57;;;;;;;0.00;0.00;;;19.70;88.80;;;;;;5059674;28;20574;-67
2022/08/18 07:23:38;;;;;;;0.43;0.35;;;19.70;88.60;;;;;;5061010;28;20045;-66
2022/08/18 07:26:10;;;;;;;0.00;0.00;;;19.70;88.50;;;;;;5051407;28;20037;-66
2022/08/18 07:28:49;;;;;;;0.00;0.00;;;19.70;88.50;;;;;;5051888;28;20041;-68
2022/08/18 07:31:37;;;;;;;0.65;0.57;;;19.80;88.30;;;;;;5057409;28;20521;-67
2022/08/18 07:34:16;;;;;;;0.00;0.00;;;19.80;88.20;;;;;;5060103;28;20047;-67
2022/08/18 07:36:53;;;;;;;1.77;0.77;;;19.80;88.10;;;;;;5033797;28;20049;-66
2022/08/18 07:39:30;;;;;;;0.00;0.00;;;19.80;87.80;;;;;;5055738;28;20072;-67
2022/08/18 07:42:22;;;;;;;0.00;0.00;;;19.90;87.80;;;;;;5055885;28;20087;-67
2022/08/18 07:45:20;;;;;;;;;;;19.90;87.80;;;;;;5032620;28;20387;-67
2022/08/18 07:47:52;;;;;;;0.00;0.00;;;20.00;87.90;;;;;;5028090;28;20433;-67
2022/08/18 07:50:17;;;;;;;0.00;0.00;;;20.10;88.00;;;;;;5053476;28;20052;-68
2022/08/18 07:52:58;;;;;;;0.00;0.00;;;20.10;87.50;;;;;;5057946;28;20048;-68
2022/08/18 07:55:27;;;;;;;0.00;0.00;;;20.10;87.20;;;;;;5053122;28;20091;-67
2022/08/18 07:57:58;;;;;;;0.00;0.00;;;20.10;87.00;;;;;;5052718;28;20053;-67
2022/08/18 08:00:45;;;;;;;0.00;0.00;;;20.10;87.00;;;;;;5056952;28;20048;-67
2022/08/18 08:03:26;;;;;;;0.00;0.00;;;20.10;86.80;;;;;;5064627;28;20041;-68
2022/08/18 08:05:58;;;;;;;0.00;0.00;;;20.10;86.90;;;;;;5052624;28;20049;-66
2022/08/18 08:08:34;;;;;;;0.65;0.65;;;20.10;86.90;;;;;;5064214;28;20871;-66
2022/08/18 08:11:11;;;;;;;0.00;0.00;;;20.20;86.80;;;;;;5057704;28;20043;-67
2022/08/18 08:13:57;;;;;;;0.00;0.00;;;20.20;86.70;;;;;;5063346;28;20052;-67
2022/08/18 08:16:47;;;;;;;0.00;0.00;;;20.20;86.50;;;;;;5067338;28;20493;-67
2022/08/18 08:19:26;;;;;;;0.00;0.00;;;20.30;86.00;;;;;;5051735;28;20505;-68
2022/08/18 08:22:13;;;;;;;0.00;0.00;;;20.30;85.70;;;;;;5061657;28;20044;-68
2022/08/18 08:25:02;;;;;;;0.00;0.00;;;20.30;85.50;;;;;;5055675;28;20068;-67
2022/08/18 08:27:43;;;;;;;0.00;0.00;;;20.30;85.40;;;;;;5052623;28;20507;-68
2022/08/18 08:30:15;;;;;;;0.00;0.00;;;20.40;85.50;;;;;;5063391;28;20055;-73
2022/08/18 08:32:55;;;;;;;0.00;0.00;;;20.40;85.30;;;;;;5038249;28;20048;-68
2022/08/18 08:35:42;;;;;;;0.00;0.00;;;20.50;85.20;;;;;;5050533;28;20123;-69
2022/08/18 08:38:16;;;;;;;0.00;0.00;;;20.50;85.10;;;;;;5057112;28;20482;-69
2022/08/18 08:41:02;;;;;;;0.00;0.00;;;20.50;84.60;;;;;;5068103;28;20052;-68
2022/08/18 08:43:41;;;;;;;0.00;0.00;;;20.50;84.90;;;;;;5070206;28;20123;-69
2022/08/18 08:46:14;;;;;;;0.17;0.17;;;20.50;84.90;;;;;;5057404;28;20490;-68
2022/08/18 08:49:10;;;;;;;0.00;0.00;;;20.50;84.80;;;;;;5053236;28;20051;-67
2022/08/18 08:51:45;;;;;;;0.00;0.00;;;20.50;84.60;;;;;;5056095;28;20048;-69
2022/08/18 08:54:20;;;;;;;0.00;0.00;;;20.60;84.40;;;;;;5055828;28;20041;-68
2022/08/18 08:56:49;;;;;;;0.00;0.00;;;20.60;84.30;;;;;;5053052;28;20055;-68
2022/08/18 08:59:20;;;;;;;0.03;0.03;;;20.60;84.30;;;;;;5057380;28;20500;-68
2022/08/18 09:02:04;;;;;;;0.00;0.00;;;20.60;84.30;;;;;;5065917;28;20047;-66
2022/08/18 09:04:54;;;;;;;0.00;0.00;;;20.60;84.00;;;;;;5059512;28;20052;-69
2022/08/18 09:07:38;;;;;;;0.00;0.00;;;20.50;84.10;;;;;;5064070;28;20126;-68
2022/08/18 09:10:56;;;;;;;0.25;0.25;;;20.50;84.00;;;;;;5063976;28;20051;-68
2022/08/18 09:13:43;;;;;;;0.45;0.30;;;20.50;84.10;;;;;;5042662;28;20114;-69
2022/08/18 09:16:20;;;;;;;0.00;0.00;;;20.50;84.10;;;;;;5063774;28;20036;-67
2022/08/18 09:19:12;;;;;;;0.00;0.00;;;20.50;84.10;;;;;;5066490;28;20048;-68
2022/08/18 09:22:07;;;;;;;0.00;0.00;;;20.50;83.70;;;;;;5052350;28;20052;-69
2022/08/18 09:24:51;;;;;;;0.10;0.10;;;20.50;83.60;;;;;;5046845;28;20045;-69
2022/08/18 09:27:42;;;;;;;0.00;0.00;;;20.50;83.60;;;;;;5056043;28;20048;-68
2022/08/18 09:30:50;;;;;;;0.00;0.00;;;20.50;83.60;;;;;;5064104;28;20099;-70
2022/08/18 09:33:44;;;;;;;0.00;0.00;;;20.60;83.50;;;;;;5062793;28;20413;-69
2022/08/18 09:36:31;;;;;;;0.00;0.00;;;20.60;83.20;;;;;;5049664;28;20674;-70
2022/08/18 09:42:29;;;;;;;0.00;0.00;;;20.60;82.80;;;;;;5059144;28;20041;-69
2022/08/18 09:44:54;;;;;;;0.00;0.00;;;20.60;82.60;;;;;;5054709;28;20486;-70
2022/08/18 09:47:20;;;;;;;0.00;0.00;;;20.70;82.80;;;;;;5055944;28;20080;-69
2022/08/18 09:49:52;;;;;;;0.00;0.00;;;20.70;83.00;;;;;;5069212;28;20037;-70
2022/08/18 09:52:20;;;;;;;0.55;0.55;;;20.80;83.10;;;;;;5061909;28;20103;-69
2022/08/18 09:54:58;;;;;;;0.00;0.00;;;20.90;82.80;;;;;;5051675;28;20049;-69
2022/08/18 09:57:29;;;;;;;0.00;0.00;;;20.90;82.20;;;;;;5051300;28;20498;-69
2022/08/18 10:00:07;;;;;;;0.00;0.00;;;21.00;82.20;;;;;;5065932;28;20545;-69
2022/08/18 10:02:32;;;;;;;0.30;0.30;;;21.10;81.50;;;;;;5066368;28;20053;-69
2022/08/18 10:05:16;;;;;;;0.00;0.00;;;21.10;81.80;;;;;;5065544;28;20110;-69
2022/08/18 10:08:15;;;;;;;0.00;0.00;;;21.30;82.00;;;;;;5060401;28;20041;-69
2022/08/18 10:10:58;;;;;;;0.00;0.00;;;21.40;81.50;;;;;;5061982;28;20497;-69
2022/08/18 10:13:33;;;;;;;0.00;0.00;;;21.50;81.00;;;;;;5062012;28;20045;-69
2022/08/18 10:16:14;;;;;;;0.00;0.00;;;21.50;80.60;;;;;;5057616;28;20037;-70
2022/08/18 10:18:56;;;;;;;0.00;0.00;;;21.50;79.90;;;;;;5063249;28;20489;-69
2022/08/18 10:21:27;;;;;;;0.00;0.00;;;21.50;80.30;;;;;;5055904;28;20040;-69
2022/08/18 10:24:04;;;;;;;0.00;0.00;;;21.50;80.00;;;;;;5032323;28;20163;-69
2022/08/18 10:26:30;;;;;;;0.00;0.00;;;21.50;79.80;;;;;;5052003;28;20037;-69
2022/08/18 10:28:58;;;;;;;0.00;0.00;;;21.50;79.30;;;;;;5050822;28;20565;-69
2022/08/18 10:31:25;;;;;;;0.00;0.00;;;21.50;79.90;;;;;;5055872;28;20045;-70
2022/08/18 10:34:07;;;;;;;0.00;0.00;;;21.60;79.70;;;;;;5069294;28;20040;-69
2022/08/18 10:36:52;;;;;;;;;;;21.50;79.40;;;;;;5064437;28;20033;-69
2022/08/18 10:39:45;;;;;;;0.00;0.00;;;21.60;79.70;;;;;;5058816;28;20610;-69
2022/08/18 10:42:21;;;;;;;0.00;0.00;;;21.70;79.50;;;;;;5062426;28;20041;-69
2022/08/18 10:44:51;;;;;;;0.00;0.00;;;21.70;79.50;;;;;;5061267;28;20056;-69
2022/08/18 10:47:29;;;;;;;0.00;0.00;;;21.80;79.10;;;;;;5058877;28;20084;-70
2022/08/18 10:49:55;;;;;;;0.00;0.00;;;21.80;79.20;;;;;;5045953;28;20055;-68
2022/08/18 10:52:44;;;;;;;0.00;0.00;;;21.90;78.80;;;;;;5058926;28;20430;-69
2022/08/18 10:55:21;;;;;;;0.10;0.10;;;21.90;78.90;;;;;;5068017;28;20117;-69
2022/08/18 10:58:15;;;;;;;0.00;0.00;;;21.90;78.40;;;;;;5052210;28;20472;-68
2022/08/18 11:01:14;;;;;;;0.00;0.00;;;21.90;78.30;;;;;;5061506;28;20052;-69
2022/08/18 11:03:54;;;;;;;0.20;0.20;;;22.00;78.40;;;;;;5059003;28;20071;-71
2022/08/18 11:06:23;;;;;;;0.00;0.00;;;22.00;78.60;;;;;;5064264;28;20045;-70
2022/08/18 11:08:52;;;;;;;0.00;0.00;;;22.00;77.80;;;;;;5051620;28;20048;-71
2022/08/18 11:11:28;;;;;;;0.00;0.00;;;22.00;78.00;;;;;;5061120;28;20053;-70
2022/08/18 11:14:17;;;;;;;0.00;0.00;;;22.10;77.90;;;;;;5051892;28;20366;-69
2022/08/18 11:17:07;;;;;;;0.17;0.17;;;22.10;77.90;;;;;;5038089;28;20128;-70
2022/08/18 11:19:41;;;;;;;0.00;0.00;;;22.10;77.30;;;;;;5064473;28;20043;-70
2022/08/18 11:22:21;;;;;;;0.00;0.00;;;22.10;77.40;;;;;;5058437;28;20055;-70
2022/08/18 11:24:47;;;;;;;0.00;0.00;;;22.20;76.70;;;;;;5055453;28;20037;-70
2022/08/18 11:27:20;;;;;;;0.00;0.00;;;22.30;76.60;;;;;;5061255;28;20136;-70
2022/08/18 11:29:46;;;;;;;0.00;0.00;;;22.40;77.00;;;;;;5061726;28;20116;-70
2022/08/18 11:32:26;;;;;;;0.00;0.00;;;22.50;76.70;;;;;;5059770;28;20140;-69
2022/08/18 11:35:16;;;;;;;0.00;0.00;;;22.50;76.50;;;;;;5060211;28;20044;-70
2022/08/18 11:38:01;;;;;;;0.00;0.00;;;22.40;76.50;;;;;;5059214;28;20044;-70
2022/08/18 11:40:38;;;;;;;0.00;0.00;;;22.30;76.50;;;;;;5056063;28;20048;-70
2022/08/18 11:43:22;;;;;;;0.03;0.00;;;22.40;77.10;;;;;;5060409;28;20528;-70
2022/08/18 11:45:55;;;;;;;0.00;0.00;;;22.40;76.60;;;;;;5058602;28;20103;-69
2022/08/18 11:48:26;;;;;;;0.00;0.00;;;22.50;76.30;;;;;;5065146;28;20072;-69
2022/08/18 11:50:55;;;;;;;0.00;0.00;;;22.60;75.60;;;;;;5062914;28;20045;-69
2022/08/18 11:53:32;;;;;;;0.00;0.00;;;22.80;75.10;;;;;;5064034;28;20516;-70
2022/08/18 11:56:12;;;;;;;0.00;0.00;;;22.90;76.30;;;;;;5057949;28;20052;-69
2022/08/18 11:58:42;;;;;;;0.00;0.00;;;22.90;75.40;;;;;;5064646;28;20060;-69
2022/08/18 12:01:08;;;;;;;0.00;0.00;;;22.80;75.30;;;;;;5059904;28;20052;-69
2022/08/18 12:03:44;;;;;;;0.00;0.00;;;22.80;74.90;;;;;;5058510;28;20037;-70
2022/08/18 12:06:24;;;;;;;0.10;0.10;;;22.70;74.70;;;;;;5060864;28;20153;-70
2022/08/18 12:08:53;;;;;;;0.00;0.00;;;22.70;75.10;;;;;;5059300;28;20121;-69
2022/08/18 12:11:23;;;;;;;0.00;0.00;;;22.70;75.00;;;;;;5064051;28;20033;-69
2022/08/18 12:13:58;;;;;;;0.00;0.00;;;22.70;74.20;;;;;;5064617;28;20043;-69
2022/08/18 12:16:42;;;;;;;0.73;0.60;;;22.80;74.90;;;;;;5064081;28;20056;-70
2022/08/18 12:19:11;;;;;;;0.13;0.10;;;23.00;74.90;;;;;;5055161;28;20928;-68
2022/08/18 12:21:54;;;;;;;0.00;0.00;;;23.10;74.40;;;;;;5058972;28;20045;-69
2022/08/18 12:24:28;;;;;;;0.00;0.00;;;23.20;73.80;;;;;;5063794;28;20043;-69
2022/08/18 12:26:54;;;;;;;0.00;0.00;;;23.20;73.10;;;;;;5060248;28;20529;-69
2022/08/18 12:29:21;;;;;;;0.00;0.00;;;23.20;72.90;;;;;;5056846;28;20036;-69
2022/08/18 12:31:49;;;;;;;0.00;0.00;;;23.20;72.70;;;;;;5056836;28;20076;-69
2022/08/18 12:34:16;;;;;;;0.00;0.00;;;23.20;72.50;;;;;;5056798;28;20413;-69
2022/08/18 12:36:42;;;;;;;0.00;0.00;;;23.20;72.30;;;;;;5057216;28;20041;-69
2022/08/18 12:39:07;;;;;;;0.00;0.00;;;23.20;72.00;;;;;;5058466;28;20033;-69
2022/08/18 12:41:33;;;;;;;0.00;0.00;;;23.10;71.20;;;;;;5058355;28;20047;-70
2022/08/18 12:43:59;;;;;;;0.00;0.00;;;23.10;71.70;;;;;;5058917;28;20444;-69
2022/08/18 12:46:25;;;;;;;0.65;0.45;;;23.30;72.40;;;;;;5057732;28;20052;-69
2022/08/18 12:48:50;;;;;;;0.00;0.00;;;23.30;72.30;;;;;;5057774;28;20040;-68
2022/08/18 12:51:16;;;;;;;0.00;0.00;;;23.50;71.40;;;;;;5060141;28;20047;-68
2022/08/18 12:53:42;;;;;;;0.00;0.00;;;23.60;71.20;;;;;;5064367;28;20545;-69
2022/08/18 12:56:21;;;;;;;0.00;0.00;;;23.80;71.50;;;;;;5060378;28;20132;-69
2022/08/18 12:58:48;;;;;;;0.00;0.00;;;23.90;70.70;;;;;;5059350;28;20041;-69
2022/08/18 13:01:15;;;;;;;0.13;0.05;;;23.90;70.30;;;;;;5056347;28;20123;-69
2022/08/18 13:03:40;;;;;;;0.17;0.17;;;23.90;69.80;;;;;;5057154;28;20048;-69
2022/08/18 13:06:06;;;;;;;0.65;0.30;;;23.90;69.80;;;;;;5057907;28;20519;-69
2022/08/18 13:08:32;;;;;;;0.00;0.00;;;23.90;70.40;;;;;;5062207;28;20039;-69
2022/08/18 13:10:59;;;;;;;0.00;0.00;;;23.80;69.70;;;;;;5058069;28;20082;-67
2022/08/18 13:13:25;;;;;;;0.00;0.00;;;23.80;70.50;;;;;;5055174;28;20456;-68
2022/08/18 13:15:53;;;;;;;0.00;0.00;;;23.80;69.20;;;;;;5054743;28;20055;-68
2022/08/18 13:18:18;;;;;;;0.00;0.00;;;23.80;70.30;;;;;;5058977;28;20055;-68
2022/08/18 13:20:44;;;;;;;0.00;0.00;;;23.80;70.30;;;;;;5060218;28;20052;-68
2022/08/18 13:23:10;;;;;;;0.00;0.00;;;23.90;70.60;;;;;;5059536;28;20470;-69
2022/08/18 13:25:37;;;;;;;0.00;0.00;;;23.90;70.60;;;;;;5055549;28;20117;-69
2022/08/18 13:28:03;;;;;;;0.05;0.05;;;23.90;71.20;;;;;;5054605;28;20080;-70
2022/08/18 13:30:29;;;;;;;0.00;0.00;;;23.90;70.00;;;;;;5055088;28;20052;-70
2022/08/18 13:32:54;;;;;;;0.00;0.00;;;24.00;70.60;;;;;;5055335;28;20044;-70
2022/08/18 13:35:20;;;;;;;0.00;0.00;;;24.00;70.80;;;;;;5058064;28;20115;-70